createdAt,value
2022-12-11T00:01:29.703Z,29.92
2022-12-11T00:03:01.142Z,25.40
2022-12-11T00:04:32.527Z,26.51
2022-12-11T00:06:03.680Z,27.03
2022-12-11T00:07:35.002Z,26.47
2022-12-11T00:09:06.264Z,25.84
2022-12-11T00:10:37.983Z,26.39
2022-12-11T00:12:09.527Z,25.23
2022-12-11T00:13:40.902Z,24.58
2022-12-11T00:15:12.487Z,24.68
2022-12-11T00:16:44.316Z,24.75
2022-12-11T00:18:15.734Z,26.89
2022-12-11T00:19:46.953Z,26.32
2022-12-11T00:21:18.097Z,26.46
2022-12-11T00:22:49.564Z,25.46
2022-12-11T00:24:20.733Z,26.63
2022-12-11T00:25:52.144Z,24.40
2022-12-11T00:27:23.510Z,25.95
2022-12-11T00:28:54.672Z,28.22
2022-12-11T00:30:26.074Z,28.96
2022-12-11T00:31:57.743Z,30.31
2022-12-11T00:33:29.057Z,28.36
2022-12-11T00:35:01.123Z,29.19
2022-12-11T00:36:32.406Z,28.23
2022-12-11T00:38:03.569Z,30.17
2022-12-11T00:39:35.175Z,31.00
2022-12-11T00:41:06.831Z,31.71
2022-12-11T00:42:38.442Z,30.52
2022-12-11T00:44:09.680Z,27.91
2022-12-11T00:45:41.003Z,24.24
2022-12-11T00:47:12.540Z,29.14
2022-12-11T00:48:44.275Z,28.42
2022-12-11T00:50:15.876Z,29.59
2022-12-11T00:51:47.204Z,30.52
2022-12-11T00:53:19.364Z,29.14
2022-12-11T00:54:50.877Z,31.38
2022-12-11T00:56:22.457Z,31.77
2022-12-11T00:57:53.616Z,31.00
2022-12-11T00:59:24.919Z,30.58
2022-12-11T01:00:56.421Z,26.79
2022-12-11T01:02:27.847Z,23.13
2022-12-11T01:03:59.168Z,27.69
2022-12-11T01:05:30.407Z,26.09
2022-12-11T01:07:01.792Z,26.88
2022-12-11T01:08:38.371Z,30.68
2022-12-11T01:10:10.157Z,28.11
2022-12-11T01:11:41.375Z,28.60
2022-12-11T01:13:12.648Z,28.22
2022-12-11T01:14:44.057Z,24.78
2022-12-11T01:16:15.502Z,17.87
2022-12-11T01:17:46.801Z,22.01
2022-12-11T01:19:17.997Z,20.25
2022-12-11T01:20:49.561Z,21.71
2022-12-11T01:22:20.694Z,23.92
2022-12-11T01:23:51.985Z,23.00
2022-12-11T01:25:23.723Z,24.60
2022-12-11T01:26:55.028Z,23.89
2022-12-11T01:28:26.273Z,23.65
2022-12-11T01:29:58.041Z,24.69
2022-12-11T01:31:29.441Z,26.54
2022-12-11T01:33:00.811Z,24.77
2022-12-11T01:34:32.072Z,25.57
2022-12-11T01:36:03.446Z,26.12
2022-12-11T01:37:39.833Z,26.22
2022-12-11T01:39:11.107Z,26.20
2022-12-11T01:40:50.404Z,25.90
2022-12-11T01:42:22.084Z,26.18
2022-12-11T01:43:53.243Z,26.02
2022-12-11T01:45:26.885Z,26.92
2022-12-11T01:46:58.701Z,26.41
2022-12-11T01:48:30.096Z,26.31
2022-12-11T01:50:01.475Z,26.12
2022-12-11T01:51:32.972Z,25.60
2022-12-11T01:53:04.512Z,25.44
2022-12-11T01:54:35.952Z,25.63
2022-12-11T01:56:07.350Z,26.35
2022-12-11T01:57:38.760Z,26.78
2022-12-11T01:59:10.216Z,27.33
2022-12-11T02:00:41.494Z,27.30
2022-12-11T02:02:12.704Z,27.88
2022-12-11T02:03:44.075Z,28.18
2022-12-11T02:05:15.483Z,29.06
2022-12-11T02:06:46.849Z,29.08
2022-12-11T02:08:18.074Z,28.50
2022-12-11T02:09:49.625Z,29.47
2022-12-11T02:11:20.969Z,29.50
2022-12-11T02:12:52.131Z,30.61
2022-12-11T02:14:23.326Z,30.70
2022-12-11T02:15:54.515Z,30.90
2022-12-11T02:17:26.008Z,30.09
2022-12-11T02:18:57.236Z,29.95
2022-12-11T02:20:28.445Z,31.51
2022-12-11T02:21:59.903Z,31.79
2022-12-11T02:23:31.098Z,30.87
2022-12-11T02:25:02.338Z,32.68
2022-12-11T02:26:33.781Z,30.70
2022-12-11T02:28:04.998Z,32.36
2022-12-11T02:29:36.444Z,33.25
2022-12-11T02:31:07.910Z,30.93
2022-12-11T02:32:39.255Z,30.43
2022-12-11T02:34:10.762Z,28.22
2022-12-11T02:35:42.239Z,30.98
2022-12-11T02:37:13.578Z,32.78
2022-12-11T02:38:44.923Z,33.84
2022-12-11T02:40:16.380Z,31.86
2022-12-11T02:41:47.930Z,31.85
2022-12-11T02:43:19.293Z,34.11
2022-12-11T02:44:50.664Z,31.27
2022-12-11T02:46:21.976Z,32.87
2022-12-11T02:47:53.126Z,33.79
2022-12-11T02:49:24.420Z,33.61
2022-12-11T02:50:55.754Z,33.22
2022-12-11T02:52:27.175Z,33.43
2022-12-11T02:53:58.471Z,33.82
2022-12-11T02:55:29.756Z,34.06
2022-12-11T02:57:01.136Z,32.09
2022-12-11T02:58:32.717Z,33.86
2022-12-11T03:00:04.092Z,33.20
2022-12-11T03:01:35.759Z,33.45
2022-12-11T03:03:07.100Z,32.70
2022-12-11T03:04:38.302Z,31.78
2022-12-11T03:06:09.458Z,32.32
2022-12-11T03:07:40.801Z,35.00
2022-12-11T03:09:11.947Z,34.79
2022-12-11T03:10:43.268Z,35.78
2022-12-11T03:12:14.542Z,34.94
2022-12-11T03:13:45.816Z,36.79
2022-12-11T03:15:17.017Z,35.86
2022-12-11T03:16:48.235Z,36.94
2022-12-11T03:18:19.762Z,36.01
2022-12-11T03:19:50.952Z,33.69
2022-12-11T03:21:22.249Z,34.99
2022-12-11T03:22:53.487Z,35.47
2022-12-11T03:24:24.657Z,35.73
2022-12-11T03:25:56.066Z,36.65
2022-12-11T03:27:27.365Z,34.34
2022-12-11T03:28:58.943Z,35.04
2022-12-11T03:30:30.258Z,36.18
2022-12-11T03:32:01.558Z,35.33
2022-12-11T03:33:32.758Z,31.42
2022-12-11T03:35:04.125Z,33.48
2022-12-11T03:36:35.347Z,35.04
2022-12-11T03:38:06.906Z,35.18
2022-12-11T03:39:38.189Z,36.49
2022-12-11T03:41:09.756Z,36.64
2022-12-11T03:42:41.064Z,35.47
2022-12-11T03:44:12.551Z,34.16
2022-12-11T03:45:43.971Z,34.17
2022-12-11T03:47:15.708Z,33.20
2022-12-11T03:48:46.839Z,36.58
2022-12-11T03:50:18.133Z,35.90
2022-12-11T03:51:49.834Z,34.70
2022-12-11T03:53:21.189Z,33.20
2022-12-11T03:54:52.490Z,35.28
2022-12-11T03:56:23.686Z,35.19
2022-12-11T03:57:54.853Z,35.70
2022-12-11T03:59:26.340Z,34.44
2022-12-11T04:00:57.727Z,34.90
2022-12-11T04:02:29.121Z,35.29
2022-12-11T04:04:00.445Z,36.90
2022-12-11T04:05:31.792Z,37.53
2022-12-11T04:07:03.241Z,37.16
2022-12-11T04:08:34.855Z,35.69
2022-12-11T04:10:06.145Z,35.22
2022-12-11T04:11:37.434Z,37.95
2022-12-11T04:13:08.806Z,35.67
2022-12-11T04:14:40.092Z,36.40
2022-12-11T04:16:11.518Z,34.10
2022-12-11T04:17:42.896Z,30.36
2022-12-11T04:19:14.261Z,30.24
2022-12-11T04:20:45.431Z,29.18
2022-12-11T04:22:16.716Z,29.99
2022-12-11T04:23:48.086Z,29.95
2022-12-11T04:25:19.330Z,30.50
2022-12-11T04:26:50.673Z,29.51
2022-12-11T04:28:21.876Z,28.98
2022-12-11T04:29:54.341Z,28.11
2022-12-11T04:31:25.696Z,28.66
2022-12-11T04:32:56.928Z,28.21
2022-12-11T04:34:28.351Z,28.61
2022-12-11T04:36:00.012Z,28.21
2022-12-11T04:37:31.226Z,27.92
2022-12-11T04:39:02.486Z,26.10
2022-12-11T04:40:33.738Z,25.80
2022-12-11T04:42:05.074Z,27.09
2022-12-11T04:43:36.576Z,27.27
2022-12-11T04:45:08.075Z,27.68
2022-12-11T04:46:40.871Z,28.54
2022-12-11T04:48:12.142Z,28.35
2022-12-11T04:49:43.581Z,28.35
2022-12-11T04:51:14.884Z,26.54
2022-12-11T04:52:46.271Z,24.32
2022-12-11T04:54:17.673Z,26.02
2022-12-11T04:55:49.238Z,26.18
2022-12-11T04:57:20.637Z,26.16
2022-12-11T04:58:52.355Z,24.87
2022-12-11T05:00:23.625Z,25.13
2022-12-11T05:01:55.096Z,25.31
2022-12-11T05:03:26.495Z,25.73
2022-12-11T05:04:58.340Z,26.14
2022-12-11T05:06:29.796Z,24.08
2022-12-11T05:08:01.251Z,24.50
2022-12-11T05:09:32.556Z,24.08
2022-12-11T05:11:03.688Z,24.13
2022-12-11T05:12:34.918Z,24.56
2022-12-11T05:14:06.379Z,24.99
2022-12-11T05:15:37.929Z,25.37
2022-12-11T05:17:10.610Z,25.25
2022-12-11T05:18:41.985Z,24.26
2022-12-11T05:20:13.345Z,24.23
2022-12-11T05:21:44.472Z,24.24
2022-12-11T05:23:15.769Z,24.64
2022-12-11T05:24:47.187Z,23.07
2022-12-11T05:26:18.571Z,22.94
2022-12-11T05:27:50.050Z,24.13
2022-12-11T05:29:21.644Z,22.89
2022-12-11T05:30:53.207Z,22.96
2022-12-11T05:32:24.679Z,23.63
2022-12-11T05:33:56.569Z,24.44
2022-12-11T05:35:27.726Z,23.50
2022-12-11T05:36:59.037Z,23.78
2022-12-11T05:38:30.309Z,23.90
2022-12-11T05:40:01.690Z,23.85
2022-12-11T05:41:32.982Z,23.80
2022-12-11T05:43:04.437Z,23.81
2022-12-11T05:44:35.970Z,23.77
2022-12-11T05:46:07.339Z,24.21
2022-12-11T05:47:38.757Z,24.44
2022-12-11T05:49:10.210Z,24.98
2022-12-11T05:50:41.728Z,25.04
2022-12-11T05:52:13.281Z,24.15
2022-12-11T05:53:44.498Z,25.03
2022-12-11T05:55:15.791Z,26.10
2022-12-11T05:56:47.185Z,25.20
2022-12-11T05:58:18.378Z,24.28
2022-12-11T05:59:49.709Z,25.69
2022-12-11T06:01:20.875Z,26.40
2022-12-11T06:02:52.373Z,25.38
2022-12-11T06:04:23.778Z,25.36
2022-12-11T06:05:55.275Z,25.91
2022-12-11T06:07:26.784Z,26.32
2022-12-11T06:08:58.415Z,26.10
2022-12-11T06:10:29.960Z,25.93
2022-12-11T06:12:01.401Z,26.31
2022-12-11T06:13:32.879Z,26.06
2022-12-11T06:15:04.291Z,25.57
2022-12-11T06:16:35.761Z,25.84
2022-12-11T06:18:07.005Z,26.02
2022-12-11T06:19:38.215Z,25.80
2022-12-11T06:21:09.504Z,26.70
2022-12-11T06:22:40.661Z,26.26
2022-12-11T06:24:11.827Z,26.21
2022-12-11T06:25:43.261Z,26.30
2022-12-11T06:27:14.684Z,26.03
2022-12-11T06:28:45.994Z,25.32
2022-12-11T06:30:17.383Z,25.86
2022-12-11T06:31:48.603Z,25.68
2022-12-11T06:33:20.150Z,26.09
2022-12-11T06:34:51.444Z,25.52
2022-12-11T06:36:22.863Z,26.00
2022-12-11T06:37:54.068Z,25.92
2022-12-11T06:39:25.263Z,25.65
2022-12-11T06:40:56.486Z,26.09
2022-12-11T06:42:28.040Z,25.69
2022-12-11T06:43:59.333Z,26.61
2022-12-11T06:45:30.737Z,27.14
2022-12-11T06:47:02.071Z,26.99
2022-12-11T06:48:33.275Z,28.54
2022-12-11T06:50:04.920Z,28.37
2022-12-11T06:51:36.535Z,27.18
2022-12-11T06:53:07.920Z,28.14
2022-12-11T06:54:39.257Z,27.36
2022-12-11T06:56:10.536Z,27.47
2022-12-11T06:57:41.986Z,27.36
2022-12-11T06:59:13.375Z,27.21
2022-12-11T07:00:44.570Z,26.68
2022-12-11T07:02:16.056Z,26.32
2022-12-11T07:03:47.242Z,26.57
2022-12-11T07:05:18.660Z,25.70
2022-12-11T07:06:50.287Z,25.46
2022-12-11T07:08:21.544Z,26.01
2022-12-11T07:09:52.717Z,24.72
2022-12-11T07:11:24.042Z,24.00
2022-12-11T07:12:56.250Z,25.88
2022-12-11T07:14:27.565Z,24.89
2022-12-11T07:15:58.879Z,23.64
2022-12-11T07:17:30.126Z,25.02
2022-12-11T07:19:01.681Z,24.20
2022-12-11T07:20:32.812Z,23.52
2022-12-11T07:22:05.337Z,23.71
2022-12-11T07:23:36.608Z,23.52
2022-12-11T07:25:08.285Z,22.79
2022-12-11T07:26:40.015Z,22.51
2022-12-11T07:28:16.531Z,21.58
2022-12-11T07:29:48.673Z,21.34
2022-12-11T07:31:20.294Z,20.56
2022-12-11T07:32:51.789Z,19.68
2022-12-11T07:34:23.121Z,19.36
2022-12-11T07:35:54.566Z,19.27
2022-12-11T07:37:25.911Z,21.13
2022-12-11T07:38:57.467Z,19.53
2022-12-11T07:40:28.666Z,17.98
2022-12-11T07:42:00.100Z,18.15
2022-12-11T07:43:31.573Z,17.74
2022-12-11T07:45:02.846Z,18.47
2022-12-11T07:46:34.086Z,17.53
2022-12-11T07:48:05.535Z,17.11
2022-12-11T07:49:41.939Z,17.01
2022-12-11T07:51:13.564Z,16.96
2022-12-11T07:52:44.785Z,17.51
2022-12-11T07:54:16.041Z,17.29
2022-12-11T07:55:47.430Z,16.92
2022-12-11T07:57:18.851Z,17.19
2022-12-11T07:58:50.079Z,16.98
2022-12-11T08:00:21.518Z,17.34
2022-12-11T08:01:52.930Z,17.19
2022-12-11T08:03:24.246Z,17.08
2022-12-11T08:04:55.455Z,17.17
2022-12-11T08:06:26.769Z,16.81
2022-12-11T08:07:58.260Z,17.32
2022-12-11T08:09:29.774Z,18.10
2022-12-11T08:11:00.962Z,17.40
2022-12-11T08:12:32.233Z,17.96
2022-12-11T08:14:03.420Z,18.24
2022-12-11T08:15:34.588Z,17.69
2022-12-11T08:17:05.935Z,17.97
2022-12-11T08:18:38.006Z,17.80
2022-12-11T08:20:09.220Z,17.57
2022-12-11T08:21:40.791Z,18.78
2022-12-11T08:23:12.190Z,18.98
2022-12-11T08:24:43.507Z,19.09
2022-12-11T08:26:15.013Z,19.20
2022-12-11T08:27:46.229Z,18.82
2022-12-11T08:29:17.650Z,17.38
2022-12-11T08:30:49.261Z,16.72
2022-12-11T08:32:20.768Z,16.04
2022-12-11T08:33:53.008Z,16.37
2022-12-11T08:35:24.608Z,16.32
2022-12-11T08:36:56.156Z,16.85
2022-12-11T08:38:28.108Z,17.28
2022-12-11T08:39:59.658Z,17.31
2022-12-11T08:41:30.989Z,18.50
2022-12-11T08:43:02.251Z,18.16
2022-12-11T08:44:33.703Z,18.57
2022-12-11T08:46:05.274Z,18.74
2022-12-11T08:47:42.261Z,18.73
2022-12-11T08:49:13.432Z,17.35
2022-12-11T08:50:44.748Z,18.05
2022-12-11T08:52:16.299Z,18.27
2022-12-11T08:53:47.585Z,17.72
2022-12-11T08:55:18.900Z,18.16
2022-12-11T08:56:54.814Z,17.99
2022-12-11T08:58:29.219Z,18.17
2022-12-11T09:00:00.619Z,18.22
2022-12-11T09:01:31.909Z,18.35
2022-12-11T09:03:04.583Z,17.34
2022-12-11T09:04:57.606Z,16.76
2022-12-11T09:06:29.159Z,16.34
2022-12-11T09:08:00.397Z,16.22
2022-12-11T09:09:31.747Z,16.64
2022-12-11T09:11:02.910Z,17.24
2022-12-11T09:12:34.356Z,16.90
2022-12-11T09:14:07.826Z,17.15
2022-12-11T09:15:39.676Z,17.50
2022-12-11T09:17:11.044Z,17.34
2022-12-11T09:18:42.422Z,17.23
2022-12-11T09:20:13.774Z,17.51
2022-12-11T09:21:44.977Z,17.89
2022-12-11T09:23:21.214Z,18.23
2022-12-11T09:25:02.524Z,18.26
2022-12-11T09:26:33.778Z,17.95
2022-12-11T09:28:04.987Z,18.42
2022-12-11T09:29:36.242Z,19.28
2022-12-11T09:31:07.790Z,20.53
2022-12-11T09:32:39.027Z,20.08
2022-12-11T09:34:10.439Z,19.21
2022-12-11T09:35:51.871Z,19.24
2022-12-11T09:37:23.383Z,19.32
2022-12-11T09:38:54.876Z,19.02
2022-12-11T09:40:26.216Z,18.61
2022-12-11T09:41:57.721Z,18.71
2022-12-11T09:43:29.439Z,19.78
2022-12-11T09:45:01.196Z,18.67
2022-12-11T09:46:37.552Z,18.68
2022-12-11T09:48:09.403Z,16.92
2022-12-11T09:49:40.874Z,15.51
2022-12-11T09:51:12.263Z,15.31
2022-12-11T09:52:43.705Z,20.55
2022-12-11T09:54:19.943Z,17.19
2022-12-11T09:55:56.474Z,15.96
2022-12-11T09:57:28.308Z,15.96
2022-12-11T09:58:59.621Z,15.78
2022-12-11T10:00:30.845Z,14.96
2022-12-11T10:02:02.052Z,15.08
2022-12-11T10:03:33.226Z,15.47
2022-12-11T10:05:04.515Z,14.98
2022-12-11T10:06:35.899Z,14.96
2022-12-11T10:08:07.345Z,15.06
2022-12-11T10:09:38.637Z,15.46
2022-12-11T10:11:09.811Z,14.98
2022-12-11T10:12:41.073Z,15.05
2022-12-11T10:14:12.491Z,15.24
2022-12-11T10:15:43.858Z,15.02
2022-12-11T10:17:15.373Z,15.43
2022-12-11T10:18:46.548Z,15.09
2022-12-11T10:20:17.805Z,16.20
2022-12-11T10:21:49.019Z,16.48
2022-12-11T10:23:20.452Z,15.57
2022-12-11T10:25:11.317Z,16.54
2022-12-11T10:26:43.558Z,16.30
2022-12-11T10:28:14.999Z,16.94
2022-12-11T10:29:46.347Z,16.50
2022-12-11T10:31:17.927Z,16.54
2022-12-11T10:32:49.392Z,16.57
2022-12-11T10:34:20.943Z,16.38
2022-12-11T10:35:52.301Z,16.01
2022-12-11T10:37:23.535Z,15.44
2022-12-11T10:38:54.910Z,17.25
2022-12-11T10:40:26.397Z,20.18
2022-12-11T10:41:57.666Z,17.81
2022-12-11T10:43:29.089Z,15.18
2022-12-11T10:45:00.649Z,13.99
2022-12-11T10:46:31.976Z,13.25
2022-12-11T10:48:03.175Z,13.66
2022-12-11T10:49:34.347Z,13.31
2022-12-11T10:51:05.536Z,13.85
2022-12-11T10:52:36.754Z,14.07
2022-12-11T10:54:08.236Z,15.76
2022-12-11T10:55:39.824Z,14.67
2022-12-11T10:57:11.263Z,14.19
2022-12-11T10:58:42.566Z,13.40
2022-12-11T11:00:13.996Z,13.95
2022-12-11T11:01:45.289Z,14.38
2022-12-11T11:03:17.494Z,13.59
2022-12-11T11:04:48.800Z,11.17
2022-12-11T11:06:20.027Z,12.50
2022-12-11T11:07:51.613Z,12.98
2022-12-11T11:09:23.187Z,9.72
2022-12-11T11:10:54.419Z,9.85
2022-12-11T11:12:25.721Z,9.56
2022-12-11T11:13:56.964Z,10.03
2022-12-11T11:15:28.493Z,10.07
2022-12-11T11:16:59.841Z,10.28
2022-12-11T11:18:31.034Z,10.10
2022-12-11T11:20:02.235Z,10.01
2022-12-11T11:21:33.473Z,10.22
2022-12-11T11:23:04.623Z,10.16
2022-12-11T11:24:35.875Z,10.25
2022-12-11T11:26:07.079Z,10.77
2022-12-11T11:27:40.178Z,10.89
2022-12-11T11:29:11.560Z,11.30
2022-12-11T11:30:42.901Z,11.28
2022-12-11T11:32:14.221Z,12.11
2022-12-11T11:33:45.515Z,13.30
2022-12-11T11:35:16.808Z,13.56
2022-12-11T11:36:48.081Z,14.02
2022-12-11T11:38:19.494Z,13.91
2022-12-11T11:39:50.891Z,12.76
2022-12-11T11:41:27.145Z,12.72
2022-12-11T11:42:58.466Z,11.77
2022-12-11T11:44:29.675Z,12.39
2022-12-11T11:46:00.884Z,12.68
2022-12-11T11:47:32.072Z,12.47
2022-12-11T11:49:03.272Z,11.82
2022-12-11T11:50:34.423Z,11.17
2022-12-11T11:52:10.817Z,11.28
2022-12-11T11:53:42.139Z,10.62
2022-12-11T11:55:16.218Z,10.34
2022-12-11T11:56:51.392Z,9.73
2022-12-11T11:58:22.866Z,10.47
2022-12-11T11:59:54.327Z,10.66
2022-12-11T12:01:25.623Z,10.73
2022-12-11T12:02:57.104Z,11.00
2022-12-11T12:04:28.567Z,11.46
2022-12-11T12:05:59.944Z,11.96
2022-12-11T12:07:31.298Z,11.91
2022-12-11T12:09:02.718Z,12.07
2022-12-11T12:10:34.268Z,12.21
2022-12-11T12:12:05.440Z,12.93
2022-12-11T12:13:50.505Z,13.36
2022-12-11T12:15:21.950Z,13.93
2022-12-11T12:16:53.895Z,14.52
2022-12-11T12:18:25.276Z,14.86
2022-12-11T12:19:56.572Z,14.59
2022-12-11T12:21:27.995Z,14.49
2022-12-11T12:22:59.336Z,15.00
2022-12-11T12:24:30.559Z,15.06
2022-12-11T12:26:01.813Z,14.68
2022-12-11T12:27:52.134Z,15.65
2022-12-11T12:29:24.032Z,14.36
2022-12-11T12:30:55.273Z,15.38
2022-12-11T12:32:26.875Z,15.47
2022-12-11T12:33:58.147Z,16.02
2022-12-11T12:35:29.351Z,15.85
2022-12-11T12:37:00.683Z,15.92
2022-12-11T12:38:32.033Z,15.97
2022-12-11T12:40:03.332Z,15.78
2022-12-11T12:41:34.508Z,16.96
2022-12-11T12:43:05.711Z,16.69
2022-12-11T12:44:36.953Z,15.97
2022-12-11T12:46:08.302Z,15.51
2022-12-11T12:47:39.918Z,16.22
2022-12-11T12:49:11.463Z,16.85
2022-12-11T12:50:42.713Z,19.51
2022-12-11T12:52:14.199Z,20.38
2022-12-11T12:53:45.380Z,13.24
2022-12-11T12:55:16.758Z,12.28
2022-12-11T12:56:48.036Z,12.60
2022-12-11T12:58:19.243Z,13.39
2022-12-11T12:59:50.469Z,15.11
2022-12-11T13:01:21.792Z,14.25
2022-12-11T13:02:53.129Z,12.82
2022-12-11T13:04:54.038Z,11.92
2022-12-11T13:06:26.718Z,11.78
2022-12-11T13:07:58.014Z,11.25
2022-12-11T13:09:29.277Z,11.24
2022-12-11T13:11:00.765Z,11.75
2022-12-11T13:12:47.201Z,14.90
2022-12-11T13:14:23.631Z,13.61
2022-12-11T13:15:54.959Z,11.53
2022-12-11T13:17:26.388Z,12.11
2022-12-11T13:18:57.719Z,14.59
2022-12-11T13:20:28.953Z,13.53
2022-12-11T13:22:00.201Z,13.76
2022-12-11T13:23:31.435Z,13.23
2022-12-11T13:25:02.776Z,14.17
2022-12-11T13:26:34.312Z,12.60
2022-12-11T13:28:05.555Z,12.69
2022-12-11T13:29:36.840Z,13.02
2022-12-11T13:31:08.327Z,12.18
2022-12-11T13:32:39.712Z,12.42
2022-12-11T13:34:11.220Z,12.92
2022-12-11T13:35:42.483Z,13.26
2022-12-11T13:37:13.706Z,12.73
2022-12-11T13:38:44.975Z,12.77
2022-12-11T13:40:16.444Z,14.51
2022-12-11T13:41:47.679Z,13.78
2022-12-11T13:43:18.915Z,13.30
2022-12-11T13:44:50.423Z,13.86
2022-12-11T13:46:21.753Z,14.24
2022-12-11T13:47:53.036Z,14.94
2022-12-11T13:49:24.467Z,14.55
2022-12-11T13:50:55.960Z,14.11
2022-12-11T13:52:27.378Z,14.04
2022-12-11T13:53:58.734Z,12.72
2022-12-11T13:55:29.952Z,12.46
2022-12-11T13:57:01.363Z,12.69
2022-12-11T13:58:32.572Z,12.37
2022-12-11T14:00:03.769Z,12.85
2022-12-11T14:01:35.073Z,12.48
2022-12-11T14:03:06.661Z,12.42
2022-12-11T14:04:37.976Z,13.36
2022-12-11T14:06:12.088Z,13.17
2022-12-11T14:07:48.262Z,13.50
2022-12-11T14:09:19.511Z,13.49
2022-12-11T14:10:50.765Z,13.60
2022-12-11T14:12:22.224Z,13.84
2022-12-11T14:13:53.540Z,14.44
2022-12-11T14:15:24.773Z,13.86
2022-12-11T14:16:56.403Z,13.36
2022-12-11T14:18:27.644Z,13.29
2022-12-11T14:19:58.999Z,13.09
2022-12-11T14:21:30.243Z,13.32
2022-12-11T14:23:01.489Z,13.63
2022-12-11T14:24:32.735Z,14.32
2022-12-11T14:26:03.930Z,14.17
2022-12-11T14:27:35.330Z,14.13
2022-12-11T14:29:06.616Z,13.99
2022-12-11T14:30:37.800Z,15.06
2022-12-11T14:32:09.087Z,14.48
2022-12-11T14:33:40.285Z,14.48
2022-12-11T14:35:11.524Z,14.75
2022-12-11T14:36:43.021Z,14.26
2022-12-11T14:38:14.614Z,14.52
2022-12-11T14:39:45.837Z,14.72
2022-12-11T14:41:17.198Z,15.46
2022-12-11T14:42:48.427Z,15.64
2022-12-11T14:44:19.674Z,13.71
2022-12-11T14:45:51.000Z,14.50
2022-12-11T14:47:22.462Z,15.50
2022-12-11T14:48:59.139Z,15.43
2022-12-11T14:50:51.892Z,15.39
2022-12-11T14:52:23.080Z,15.77
2022-12-11T14:53:54.337Z,15.98
2022-12-11T14:55:56.725Z,15.61
2022-12-11T14:57:28.144Z,15.63
2022-12-11T14:59:00.264Z,16.05
2022-12-11T15:00:31.754Z,33.30
2022-12-11T15:02:03.228Z,123.53
2022-12-11T15:03:34.586Z,61.38
2022-12-11T15:05:05.913Z,21.25
2022-12-11T15:06:38.195Z,16.07
2022-12-11T15:08:09.533Z,16.37
2022-12-11T15:09:40.824Z,16.27
2022-12-11T15:11:11.993Z,15.99
2022-12-11T15:12:43.235Z,15.18
2022-12-11T15:14:14.633Z,14.86
2022-12-11T15:15:46.171Z,15.07
2022-12-11T15:17:17.724Z,14.71
2022-12-11T15:18:49.128Z,15.26
2022-12-11T15:20:21.235Z,15.02
2022-12-11T15:21:52.639Z,15.21
2022-12-11T15:23:23.853Z,15.27
2022-12-11T15:24:55.828Z,15.22
2022-12-11T15:26:27.169Z,15.36
2022-12-11T15:27:59.367Z,15.58
2022-12-11T15:29:30.916Z,14.89
2022-12-11T15:31:17.236Z,14.89
2022-12-11T15:32:58.639Z,15.38
2022-12-11T15:34:29.824Z,15.35
2022-12-11T15:36:01.189Z,15.05
2022-12-11T15:37:32.406Z,15.32
2022-12-11T15:39:03.732Z,15.87
2022-12-11T15:40:35.250Z,15.89
2022-12-11T15:42:06.520Z,15.55
2022-12-11T15:43:38.052Z,15.41
2022-12-11T15:45:09.887Z,14.79
2022-12-11T15:46:41.520Z,15.27
2022-12-11T15:48:12.737Z,15.22
2022-12-11T15:49:43.902Z,15.33
2022-12-11T15:51:25.156Z,16.45
2022-12-11T15:52:56.367Z,16.44
2022-12-11T15:54:27.586Z,16.20
2022-12-11T15:56:08.305Z,16.07
2022-12-11T15:57:39.513Z,15.74
2022-12-11T15:59:10.703Z,15.88
2022-12-11T16:00:41.975Z,15.70
2022-12-11T16:02:13.337Z,15.45
2022-12-11T16:03:44.655Z,15.38
2022-12-11T16:05:16.111Z,15.63
2022-12-11T16:06:47.421Z,16.15
2022-12-11T16:08:18.895Z,17.14
2022-12-11T16:09:50.300Z,17.02
2022-12-11T16:11:21.535Z,16.69
2022-12-11T16:12:52.797Z,16.96
2022-12-11T16:14:29.217Z,17.07
2022-12-11T16:16:22.230Z,17.14
2022-12-11T16:18:17.759Z,17.20
2022-12-11T16:19:59.306Z,16.61
2022-12-11T16:21:35.843Z,17.13
2022-12-11T16:23:23.341Z,17.31
2022-12-11T16:24:54.880Z,17.30
2022-12-11T16:26:26.234Z,17.00
2022-12-11T16:28:07.953Z,17.05
2022-12-11T16:29:59.248Z,17.53
2022-12-11T16:31:40.561Z,17.68
2022-12-11T16:33:41.890Z,17.81
2022-12-11T16:35:19.018Z,17.36
2022-12-11T16:36:50.706Z,17.64
2022-12-11T16:38:32.003Z,17.66
2022-12-11T16:40:03.124Z,18.34
2022-12-11T16:41:34.322Z,19.56
2022-12-11T16:43:05.639Z,19.63
2022-12-11T16:44:42.411Z,19.83
2022-12-11T16:46:15.405Z,19.33
2022-12-11T16:47:56.823Z,20.22
2022-12-11T16:49:38.031Z,20.10
2022-12-11T16:51:09.532Z,19.47
2022-12-11T16:52:40.785Z,18.98
2022-12-11T16:54:12.205Z,18.31
2022-12-11T16:55:55.672Z,18.53
2022-12-11T16:57:36.995Z,18.30
2022-12-11T16:59:08.404Z,18.85
2022-12-11T17:00:45.302Z,18.47
2022-12-11T17:02:16.611Z,19.08
2022-12-11T17:04:14.723Z,19.25
2022-12-11T17:06:08.964Z,18.74
2022-12-11T17:08:02.628Z,18.92
2022-12-11T17:09:44.044Z,18.85
2022-12-11T17:11:35.706Z,19.36
2022-12-11T17:13:06.954Z,19.38
2022-12-11T17:14:48.699Z,18.97
2022-12-11T17:16:50.423Z,18.12
2022-12-11T17:18:22.196Z,18.17
2022-12-11T17:19:53.949Z,18.26
2022-12-11T17:21:44.808Z,18.47
2022-12-11T17:23:19.713Z,18.86
2022-12-11T17:24:50.939Z,19.29
2022-12-11T17:26:32.291Z,19.68
2022-12-11T17:28:03.654Z,21.62
2022-12-11T17:29:35.351Z,20.81
2022-12-11T17:31:07.042Z,20.63
2022-12-11T17:33:11.968Z,20.52
2022-12-11T17:34:49.405Z,20.21
2022-12-11T17:36:20.846Z,19.60
2022-12-11T17:37:53.402Z,19.69
2022-12-11T17:39:24.921Z,19.93
2022-12-11T17:40:56.143Z,19.46
2022-12-11T17:42:27.661Z,19.89
2022-12-11T17:43:59.114Z,19.76
2022-12-11T17:45:30.449Z,20.38
2022-12-11T17:47:06.068Z,20.29
2022-12-11T17:48:40.644Z,20.49
2022-12-11T17:50:11.909Z,20.22
2022-12-11T17:51:43.398Z,20.13
2022-12-11T17:53:14.679Z,20.04
2022-12-11T17:54:46.018Z,20.80
2022-12-11T17:56:22.305Z,20.25
2022-12-11T17:57:58.560Z,20.51
2022-12-11T17:59:35.078Z,20.77
2022-12-11T18:01:06.256Z,20.46
2022-12-11T18:02:37.426Z,20.00
2022-12-11T18:04:13.766Z,20.18
2022-12-11T18:05:45.000Z,20.19
2022-12-11T18:07:29.893Z,20.74
2022-12-11T18:09:01.593Z,21.66
2022-12-11T18:10:32.941Z,21.20
2022-12-11T18:12:09.184Z,21.06
2022-12-11T18:13:55.436Z,21.26
2022-12-11T18:15:36.665Z,20.78
2022-12-11T18:17:07.976Z,20.83
2022-12-11T18:19:26.731Z,20.53
2022-12-11T18:20:58.250Z,20.61
2022-12-11T18:22:59.514Z,20.93
2022-12-11T18:24:30.780Z,21.40
2022-12-11T18:26:02.057Z,22.32
2022-12-11T18:27:33.303Z,23.14
2022-12-11T18:29:09.497Z,24.48
2022-12-11T18:30:55.076Z,23.26
2022-12-11T18:32:26.289Z,23.65
2022-12-11T18:33:57.804Z,23.99
2022-12-11T18:35:29.029Z,23.97
2022-12-11T18:37:00.362Z,22.69
2022-12-11T18:38:31.807Z,22.21
2022-12-11T18:40:03.044Z,22.19
2022-12-11T18:41:34.292Z,22.10
2022-12-11T18:43:05.668Z,21.51
2022-12-11T18:44:37.154Z,22.00
2022-12-11T18:46:08.406Z,21.95
2022-12-11T18:47:39.626Z,22.07
2022-12-11T18:49:11.052Z,21.98
2022-12-11T18:50:42.429Z,22.53
2022-12-11T18:52:23.786Z,21.68
2022-12-11T18:54:12.908Z,22.01
2022-12-11T18:55:55.791Z,21.84
2022-12-11T18:57:29.882Z,21.69
2022-12-11T18:59:33.821Z,21.39
2022-12-11T19:01:05.542Z,21.94
2022-12-11T19:02:36.790Z,21.91
2022-12-11T19:04:10.936Z,21.11
2022-12-11T19:05:42.687Z,20.98
2022-12-11T19:07:22.067Z,21.35
2022-12-11T19:08:53.224Z,20.62
2022-12-11T19:10:45.041Z,20.64
2022-12-11T19:12:38.101Z,20.38
2022-12-11T19:14:09.601Z,20.67
2022-12-11T19:15:41.060Z,20.54
2022-12-11T19:17:12.320Z,20.60
2022-12-11T19:19:15.495Z,20.73
2022-12-11T19:20:49.792Z,20.98
2022-12-11T19:22:50.816Z,20.84
2022-12-11T19:24:27.138Z,21.40
2022-12-11T19:25:58.592Z,21.76
2022-12-11T19:27:30.110Z,21.43
2022-12-11T19:29:11.453Z,21.78
2022-12-11T19:30:42.878Z,21.09
2022-12-11T19:32:24.518Z,21.39
2022-12-11T19:33:55.946Z,21.59
2022-12-11T19:35:47.574Z,21.99
2022-12-11T19:37:18.913Z,21.31
2022-12-11T19:38:50.358Z,22.16
2022-12-11T19:40:21.905Z,22.29
2022-12-11T19:41:53.220Z,22.43
2022-12-11T19:43:24.641Z,22.46
2022-12-11T19:45:00.998Z,22.28
2022-12-11T19:46:32.473Z,23.05
2022-12-11T19:48:05.758Z,24.26
2022-12-11T19:49:37.094Z,23.74
2022-12-11T19:51:08.700Z,23.52
2022-12-11T19:52:45.811Z,23.60
2022-12-11T19:54:17.787Z,23.66
2022-12-11T19:56:01.991Z,23.38
2022-12-11T19:57:43.245Z,23.76